KCAK/CAK METAR and TAF weather

Enter ICAO airport designator
Station Type Date Time Source
KCAK METAR 2018/04/21 10:51 UTC NOAA

KCAK 211051Z 00000KT 10SM FEW250 M01/M07 A3046 RMK AO2 SLP325 T10111067


Station Type Date Time Source
KCAK Decoded METAR 2018/04/21 10:51 UTC NOAA

AKRON-CANTON REGIONAL AIRPORT , OH, United States (KCAK) 40-55N 081-27W 377M
Apr 21, 2018 - 06:51 AM EDT / 2018.04.21 1051 UTC
Wind: Calm:0
Visibility: 10 mile(s):0
Sky conditions: mostly clear
Temperature: 30.0 F (-1.1 C)
Dew Point: 19.9 F (-6.7 C)
Relative Humidity: 65%
Pressure (altimeter): 30.46 in. Hg (1031 hPa)
ob: KCAK 211051Z 00000KT 10SM FEW250 M01/M07 A3046 RMK AO2 SLP325 T10111067
cycle: 11

Station Type Date Time Source
KCAK TAF 2018/04/21 12:33 UTC NOAA

TAF KCAK 211131Z 2112/2212 10004KT P6SM SCT250
FM211700 02006KT P6SM BKN200


Example: see airport list